WetterOnline ( https://www.wetteronline.de )

Wetter aktuell Hasselfelde

Aktuelles Wetter: Braunlage (609m)

6-stündlich | Neueste Meldungen
Ortszeit Temperatur Wetter
Sa, 13.08. 8:00 19.7° C fast wolkenlos
Sa, 13.08. 2:00 18.1° C wolkenlos
Fr, 12.08. 20:00 22.0° C wolkenlos
Fr, 12.08. 14:00 24.0° C leicht bewölkt
Fr, 12.08. 8:00 19.6° C wolkenlos
Fr, 12.08. 2:00 18.0° C wolkenlos
Do, 11.08. 20:00 23.7° C wolkig
Do, 11.08. 14:00 25.1° C wolkenlos
Ortszeit Temperatur Wetter
Sa, 13.08. 13:30 24.1° C wolkig
Sa, 13.08. 13:20 24.1° C wolkig
Sa, 13.08. 13:10 24.3° C wolkig
Sa, 13.08. 13:00 24.5° C leicht bewölkt
Sa, 13.08. 12:50 24.5° C leicht bewölkt
Sa, 13.08. 12:40 23.7° C wolkig
Sa, 13.08. 12:30 24.4° C wolkig
Sa, 13.08. 12:00 23.5° C wolkenlos
Sa, 13.08. 11:30 22.9° C wolkenlos
Sa, 13.08. 11:00 22.5° C wolkenlos
Sa, 13.08. 10:30 22.5° C fast wolkenlos
Ortszeit Relative Feuchte Sichtweite
Sa, 13.08. 8:00 55% 65 km
Sa, 13.08. 2:00 52% >70 km
Fr, 12.08. 20:00 38% >70 km
Fr, 12.08. 14:00 34% 60 km
Fr, 12.08. 8:00 42% >70 km
Fr, 12.08. 2:00 46% >70 km
Do, 11.08. 20:00 34% 45 km
Do, 11.08. 14:00 30% 60 km
Ortszeit Relative Feuchte Sichtweite
Sa, 13.08. 13:30 43% >70 km
Sa, 13.08. 13:20 43% -
Sa, 13.08. 13:10 42% -
Sa, 13.08. 13:00 42% 65 km
Sa, 13.08. 12:50 42% -
Sa, 13.08. 12:40 41% -
Sa, 13.08. 12:30 41% >70 km
Sa, 13.08. 12:00 43% 55 km
Sa, 13.08. 11:30 46% 55 km
Sa, 13.08. 11:00 48% 65 km
Sa, 13.08. 10:30 50% 60 km
Ortszeit Niederschlagsmenge Niederschlagsart
Sa, 13.08. 8:00 0.0 l/m2 in 12 Std. -
Sa, 13.08. 2:00 0.0 l/m2 in 6 Std. -
Fr, 12.08. 20:00 0.0 l/m2 in 12 Std. -
Fr, 12.08. 14:00 0.0 l/m2 in 6 Std. -
Fr, 12.08. 8:00 0.0 l/m2 in 12 Std. -
Fr, 12.08. 2:00 0.0 l/m2 in 6 Std. -
Do, 11.08. 20:00 0.0 l/m2 in 12 Std. -
Do, 11.08. 14:00 0.0 l/m2 in 6 Std. -
Ortszeit Niederschlagsmenge Niederschlagsart
Sa, 13.08. 13:30 0.0 l/m2 in 1 Std. -
Sa, 13.08. 13:20 keine Meldung -
Sa, 13.08. 13:10 keine Meldung -
Sa, 13.08. 13:00 0.0 l/m2 in 1 Std. -
Sa, 13.08. 12:50 keine Meldung -
Sa, 13.08. 12:40 keine Meldung -
Sa, 13.08. 12:30 0.0 l/m2 in 1 Std. -
Sa, 13.08. 12:00 0.0 l/m2 in 1 Std. -
Sa, 13.08. 11:30 0.0 l/m2 in 1 Std. -
Sa, 13.08. 11:00 0.0 l/m2 in 1 Std. -
Sa, 13.08. 10:30 0.0 l/m2 in 1 Std. -
Ortszeit Stärke Spitze Richtung
km/h Bft. km/h Grad Sektor
Sa, 13.08. 8:00 7 2 14 50° NO
Sa, 13.08. 2:00 7 2 22 20° N
Fr, 12.08. 20:00 13 3 35 90° O
Fr, 12.08. 14:00 13 3 41 90° O
Fr, 12.08. 8:00 4 1 11 50° NO
Fr, 12.08. 2:00 7 2 18 30° NO
Do, 11.08. 20:00 14 3 29 70° O
Do, 11.08. 14:00 11 2 29 120° SO
Ortszeit Stärke Spitze Richtung
km/h Bft. km/h Grad Sektor
Sa, 13.08. 13:30 17 3 33 80° O
Sa, 13.08. 13:20 17 3 - 80° O
Sa, 13.08. 13:10 15 3 - 70° O
Sa, 13.08. 13:00 14 3 32 100° O
Sa, 13.08. 12:50 14 3 - 100° O
Sa, 13.08. 12:40 15 3 - 100° O
Sa, 13.08. 12:30 14 3 32 90° O
Sa, 13.08. 12:00 14 3 32 80° O
Sa, 13.08. 11:30 17 3 31 70° O
Sa, 13.08. 11:00 17 3 30 60° NO
Sa, 13.08. 10:30 14 3 29 110° O
Ortszeit Untergrenze Bedeckung Gattung
total tief tief mittel hoch
Sa, 13.08. 8:00 10500 m 1/8 0/8 - - -
Sa, 13.08. 2:00 - 0/8 0/8 - - -
Fr, 12.08. 20:00 - 0/8 0/8 - - -
Fr, 12.08. 14:00 1800 m 4/8 4/8 - - -
Fr, 12.08. 8:00 - 0/8 0/8 - - -
Fr, 12.08. 2:00 - 0/8 0/8 - - -
Do, 11.08. 20:00 9000 m 7/8 0/8 - - -
Do, 11.08. 14:00 - 0/8 0/8 - - -
Ortszeit Bedeckungsgrad in Achtel und Wolkenuntergrenze
Sa, 13.08. 13:30 2(1470m) 4(1800m) 5(10500m)
Sa, 13.08. 13:20 2(1470m) 4(1800m) 5(10500m)
Sa, 13.08. 13:10 5
Sa, 13.08. 13:00 5(10500m)
Sa, 13.08. 12:50 5(10500m)
Sa, 13.08. 12:40 6
Sa, 13.08. 12:30 7(10500m)
Sa, 13.08. 12:00 keine Wolken
Sa, 13.08. 11:30 keine Wolken
Sa, 13.08. 11:00 keine Wolken
Sa, 13.08. 10:30 1(1170m)
Ortszeit Luftdruck NN (hPa) Tendenz (hPa in 3 Std.)
Sa, 13.08. 8:00 1018 - 0,1
Sa, 13.08. 2:00 1020 - 0,2
Fr, 12.08. 20:00 1019 - 0,4
Fr, 12.08. 14:00 1020 - 0,9
Fr, 12.08. 8:00 1021 + 0,1
Fr, 12.08. 2:00 1022 0,0
Do, 11.08. 20:00 1020 - 0,7
Do, 11.08. 14:00 1022 - 0,9
Ortszeit Luftdruck NN (hPa) Tendenz (hPa in 3 Std.)
Sa, 13.08. 13:30 1017 - 0,5
Sa, 13.08. 13:20 1017 keine Meldung
Sa, 13.08. 13:10 1017 keine Meldung
Sa, 13.08. 13:00 1017 - 0,3
Sa, 13.08. 12:50 1017 keine Meldung
Sa, 13.08. 12:40 1017 keine Meldung
Sa, 13.08. 12:30 1017 0,0
Sa, 13.08. 12:00 1018 0,0
Sa, 13.08. 11:30 1018 + 0,2
Sa, 13.08. 11:00 1018 + 0,1
Sa, 13.08. 10:30 1018 + 0,2
Ortszeit Schneehöhe (cm)
Sa, 13.08. 8:00 0
Sa, 13.08. 2:00 0
Fr, 12.08. 20:00 0
Fr, 12.08. 14:00 0
Fr, 12.08. 8:00 0
Fr, 12.08. 2:00 0
Do, 11.08. 20:00 0
Do, 11.08. 14:00 0
Ortszeit Schneehöhe (cm)
Sa, 13.08. 13:30 0
Sa, 13.08. 13:20 0
Sa, 13.08. 13:10 0
Sa, 13.08. 13:00 0
Sa, 13.08. 12:50 0
Sa, 13.08. 12:40 0
Sa, 13.08. 12:30 0
Sa, 13.08. 12:00 0
Sa, 13.08. 11:30 0
Sa, 13.08. 11:00 0
Sa, 13.08. 10:30 0
Link zu dieser Seite / Seite empfehlen

Das Wetter in ...